createdAt,value
2016-05-25T00:00:16.594Z,0
2016-05-25T00:01:17.113Z,0
2016-05-25T00:02:16.646Z,0
2016-05-25T00:03:16.555Z,0
2016-05-25T00:04:16.636Z,0
2016-05-25T00:05:16.764Z,0
2016-05-25T00:06:16.830Z,0
2016-05-25T00:07:16.894Z,0
2016-05-25T00:08:16.866Z,0
2016-05-25T00:09:16.775Z,0
2016-05-25T00:10:16.996Z,0
2016-05-25T00:11:16.718Z,0
2016-05-25T00:12:17.032Z,0
2016-05-25T00:13:17.066Z,0
2016-05-25T00:14:17.194Z,0
2016-05-25T00:15:17.150Z,0
2016-05-25T00:16:17.638Z,0
2016-05-25T00:17:17.374Z,0
2016-05-25T00:18:17.268Z,0
2016-05-25T00:19:17.301Z,0
2016-05-25T00:20:17.195Z,0
2016-05-25T00:21:17.432Z,0
2016-05-25T00:22:17.434Z,0
2016-05-25T00:23:17.453Z,0
2016-05-25T00:24:17.581Z,0
2016-05-25T00:25:17.381Z,0
2016-05-25T00:26:17.430Z,0
2016-05-25T00:27:17.651Z,0
2016-05-25T00:28:17.654Z,0
2016-05-25T00:29:17.610Z,0
2016-05-25T00:30:17.737Z,0
2016-05-25T00:31:19.006Z,0
2016-05-25T00:32:17.680Z,0
2016-05-25T00:33:17.839Z,0
2016-05-25T00:34:17.889Z,0
2016-05-25T00:35:17.938Z,0
2016-05-25T00:36:18.003Z,0
2016-05-25T00:37:18.005Z,0
2016-05-25T00:38:18.072Z,0
2016-05-25T00:39:18.106Z,0
2016-05-25T00:40:18.124Z,0
2016-05-25T00:41:18.002Z,0
2016-05-25T00:42:18.269Z,0
2016-05-25T00:43:18.304Z,0
2016-05-25T00:44:18.274Z,0
2016-05-25T00:45:18.324Z,0
2016-05-25T00:46:18.249Z,0
2016-05-25T00:47:18.518Z,0
2016-05-25T00:48:18.427Z,0
2016-05-25T00:49:18.163Z,0
2016-05-25T00:50:18.541Z,0
2016-05-25T00:51:18.559Z,0
2016-05-25T00:52:18.609Z,0
2016-05-25T00:53:18.643Z,0
2016-05-25T00:54:18.692Z,0
2016-05-25T00:55:18.727Z,0
2016-05-25T00:56:18.604Z,0
2016-05-25T00:57:18.684Z,0
2016-05-25T00:58:18.844Z,0
2016-05-25T00:59:18.862Z,0
2016-05-25T01:00:18.912Z,0
2016-05-25T01:01:18.992Z,0
2016-05-25T01:02:19.011Z,0
2016-05-25T01:03:18.889Z,0
2016-05-25T01:04:19.110Z,0
2016-05-25T01:05:18.847Z,0
2016-05-25T01:06:19.021Z,0
2016-05-25T01:07:19.180Z,0
2016-05-25T01:08:19.089Z,0
2016-05-25T01:09:19.264Z,0
2016-05-25T01:10:19.299Z,0
2016-05-25T01:11:19.191Z,0
2016-05-25T01:12:19.429Z,0
2016-05-25T01:13:19.415Z,0
2016-05-25T01:14:19.480Z,0
2016-05-25T01:15:19.343Z,0
2016-05-25T01:16:19.876Z,0
2016-05-25T01:17:19.457Z,0
2016-05-25T01:18:19.616Z,0
2016-05-25T01:19:19.682Z,0
2016-05-25T01:20:19.731Z,0
2016-05-25T01:21:19.749Z,0
2016-05-25T01:22:19.768Z,0
2016-05-25T01:23:19.864Z,0
2016-05-25T01:24:19.757Z,0
2016-05-25T01:25:19.901Z,0
2016-05-25T01:26:19.981Z,0
2016-05-25T01:27:19.845Z,0
2016-05-25T01:28:20.018Z,0
2016-05-25T01:29:20.100Z,0
2016-05-25T01:30:20.133Z,0
2016-05-25T01:31:20.636Z,0
2016-05-25T01:32:20.170Z,0
2016-05-25T01:33:20.219Z,0
2016-05-25T01:34:20.144Z,0
2016-05-25T01:35:20.162Z,0
2016-05-25T01:36:20.321Z,0
2016-05-25T01:37:20.449Z,0
2016-05-25T01:38:20.466Z,0
2016-05-25T01:39:20.454Z,0
2016-05-25T01:40:20.223Z,0
2016-05-25T01:41:20.553Z,0
2016-05-25T01:42:20.603Z,0
2016-05-25T01:43:20.605Z,0
2016-05-25T01:44:20.671Z,0
2016-05-25T01:45:20.611Z,0
2016-05-25T01:46:20.316Z,0
2016-05-25T01:47:20.648Z,0
2016-05-25T01:48:20.822Z,0
2016-05-25T01:49:20.872Z,0
2016-05-25T01:50:20.874Z,0
2016-05-25T01:51:20.923Z,0
2016-05-25T01:52:21.037Z,0
2016-05-25T01:53:21.054Z,0
2016-05-25T01:54:20.901Z,0
2016-05-25T01:55:21.090Z,0
2016-05-25T01:56:21.125Z,0
2016-05-25T01:57:21.175Z,0
2016-05-25T01:58:21.052Z,0
2016-05-25T01:59:21.258Z,0
2016-05-25T02:00:21.136Z,0
2016-05-25T02:01:21.404Z,0
2016-05-25T02:02:21.048Z,0
2016-05-25T02:03:21.441Z,0
2016-05-25T02:04:21.459Z,0
2016-05-25T02:05:21.336Z,0
2016-05-25T02:06:21.355Z,0
2016-05-25T02:07:21.248Z,0
2016-05-25T02:08:21.594Z,0
2016-05-25T02:09:21.628Z,0
2016-05-25T02:10:21.710Z,0
2016-05-25T02:11:21.588Z,0
2016-05-25T02:12:21.731Z,0
2016-05-25T02:13:21.639Z,0
2016-05-25T02:14:21.705Z,0
2016-05-25T02:15:21.894Z,0
2016-05-25T02:16:21.913Z,0
2016-05-25T02:17:22.165Z,0
2016-05-25T02:18:22.043Z,0
2016-05-25T02:19:22.046Z,0
2016-05-25T02:20:22.065Z,0
2016-05-25T02:21:21.973Z,0
2016-05-25T02:22:21.867Z,0
2016-05-25T02:23:22.198Z,0
2016-05-25T02:24:22.263Z,0
2016-05-25T02:25:22.328Z,0
2016-05-25T02:26:22.206Z,0
2016-05-25T02:27:22.348Z,0
2016-05-25T02:28:22.383Z,0
2016-05-25T02:29:22.291Z,0
2016-05-25T02:30:22.497Z,0
2016-05-25T02:31:22.609Z,0
2016-05-25T02:32:22.847Z,0
2016-05-25T02:33:22.615Z,0
2016-05-25T02:34:22.650Z,0
2016-05-25T02:35:22.667Z,0
2016-05-25T02:36:22.545Z,0
2016-05-25T02:37:22.735Z,0
2016-05-25T02:38:22.769Z,0
2016-05-25T02:39:22.818Z,0
2016-05-25T02:40:22.697Z,0
2016-05-25T02:41:22.777Z,0
2016-05-25T02:42:22.936Z,0
2016-05-25T02:43:22.970Z,0
2016-05-25T02:44:22.926Z,0
2016-05-25T02:45:22.897Z,0
2016-05-25T02:46:24.400Z,0
2016-05-25T02:47:23.152Z,0
2016-05-25T02:48:23.015Z,0
2016-05-25T02:49:23.220Z,0
2016-05-25T02:50:23.113Z,0
2016-05-25T02:51:23.352Z,0
2016-05-25T02:52:23.368Z,0
2016-05-25T02:53:23.060Z,0
2016-05-25T02:54:23.437Z,0
2016-05-25T02:55:23.034Z,0
2016-05-25T02:56:23.490Z,0
2016-05-25T02:57:23.523Z,0
2016-05-25T02:58:23.432Z,0
2016-05-25T02:59:23.622Z,0
2016-05-25T03:00:23.640Z,0
2016-05-25T03:01:24.362Z,0
2016-05-25T03:02:23.693Z,0
2016-05-25T03:03:23.695Z,0
2016-05-25T03:04:23.808Z,0
2016-05-25T03:05:24.044Z,0
2016-05-25T03:06:23.923Z,0
2016-05-25T03:07:23.769Z,0
2016-05-25T03:08:23.803Z,0
2016-05-25T03:09:24.008Z,0
2016-05-25T03:10:24.058Z,0
2016-05-25T03:11:24.076Z,0
2016-05-25T03:12:24.111Z,5
2016-05-25T03:13:24.222Z,5
2016-05-25T03:14:24.225Z,5
2016-05-25T03:15:24.087Z,5
2016-05-25T03:16:24.855Z,5
2016-05-25T03:17:24.686Z,5
2016-05-25T03:18:24.361Z,5
2016-05-25T03:19:24.238Z,5
2016-05-25T03:20:24.304Z,5
2016-05-25T03:21:24.354Z,5
2016-05-25T03:22:24.200Z,5
2016-05-25T03:23:24.546Z,5
2016-05-25T03:24:24.643Z,5
2016-05-25T03:25:24.630Z,5
2016-05-25T03:26:24.665Z,5
2016-05-25T03:27:24.542Z,5
2016-05-25T03:28:24.591Z,5
2016-05-25T03:29:24.640Z,5
2016-05-25T03:30:24.659Z,5
2016-05-25T03:31:24.896Z,5
2016-05-25T03:32:24.914Z,5
2016-05-25T03:33:24.948Z,10
2016-05-25T03:34:24.826Z,10
2016-05-25T03:35:24.859Z,10
2016-05-25T03:36:25.066Z,10
2016-05-25T03:37:24.787Z,10
2016-05-25T03:38:25.180Z,10
2016-05-25T03:39:25.214Z,10
2016-05-25T03:40:25.077Z,10
2016-05-25T03:41:25.094Z,10
2016-05-25T03:42:25.160Z,10
2016-05-25T03:43:25.022Z,10
2016-05-25T03:44:25.212Z,10
2016-05-25T03:45:25.418Z,10
2016-05-25T03:46:25.374Z,10
2016-05-25T03:47:25.346Z,10
2016-05-25T03:48:25.536Z,10
2016-05-25T03:49:25.585Z,15
2016-05-25T03:50:25.510Z,10
2016-05-25T03:51:25.652Z,10
2016-05-25T03:52:25.702Z,10
2016-05-25T03:53:25.658Z,10
2016-05-25T03:54:25.770Z,10
2016-05-25T03:55:25.805Z,15
2016-05-25T03:56:25.698Z,15
2016-05-25T03:57:25.748Z,15
2016-05-25T03:58:25.782Z,15
2016-05-25T03:59:25.847Z,15
2016-05-25T04:00:25.896Z,15
2016-05-25T04:01:25.929Z,15
2016-05-25T04:02:26.730Z,15
2016-05-25T04:03:26.154Z,20
2016-05-25T04:04:26.188Z,15
2016-05-25T04:05:26.191Z,20
2016-05-25T04:06:26.240Z,20
2016-05-25T04:07:26.149Z,15
2016-05-25T04:08:26.387Z,20
2016-05-25T04:09:26.358Z,15
2016-05-25T04:10:26.251Z,15
2016-05-25T04:11:26.441Z,20
2016-05-25T04:12:26.475Z,20
2016-05-25T04:13:26.353Z,20
2016-05-25T04:14:26.262Z,20
2016-05-25T04:15:26.608Z,25
2016-05-25T04:16:26.486Z,25
2016-05-25T04:17:26.363Z,25
2016-05-25T04:18:26.741Z,25
2016-05-25T04:19:26.673Z,25
2016-05-25T04:20:26.825Z,25
2016-05-25T04:21:26.929Z,25
2016-05-25T04:22:26.956Z,25
2016-05-25T04:23:27.014Z,25
2016-05-25T04:24:27.150Z,30
2016-05-25T04:25:27.177Z,25
2016-05-25T04:26:27.032Z,30
2016-05-25T04:27:27.199Z,30
2016-05-25T04:28:27.101Z,30
2016-05-25T04:29:28.294Z,30
2016-05-25T04:30:27.363Z,30
2016-05-25T04:31:28.369Z,35
2016-05-25T04:32:27.311Z,30
2016-05-25T04:33:27.161Z,35
2016-05-25T04:34:27.525Z,40
2016-05-25T04:35:27.403Z,35
2016-05-25T04:36:27.595Z,35
2016-05-25T04:37:27.629Z,40
2016-05-25T04:38:27.697Z,40
2016-05-25T04:39:28.481Z,35
2016-05-25T04:40:27.608Z,40
2016-05-25T04:41:27.643Z,40
2016-05-25T04:42:27.662Z,40
2016-05-25T04:43:27.914Z,45
2016-05-25T04:44:27.824Z,50
2016-05-25T04:45:27.936Z,45
2016-05-25T04:46:28.392Z,45
2016-05-25T04:47:28.270Z,50
2016-05-25T04:48:28.803Z,40
2016-05-25T04:49:28.103Z,45
2016-05-25T04:50:27.903Z,40
2016-05-25T04:51:28.420Z,40
2016-05-25T04:52:28.142Z,40
2016-05-25T04:53:28.113Z,45
2016-05-25T04:54:28.351Z,45
2016-05-25T04:55:28.322Z,45
2016-05-25T04:56:28.058Z,45
2016-05-25T04:57:28.108Z,50
2016-05-25T04:58:28.549Z,50
2016-05-25T04:59:29.380Z,55
2016-05-25T05:00:28.555Z,55
2016-05-25T05:01:28.572Z,55
2016-05-25T05:02:28.810Z,50
2016-05-25T05:03:28.703Z,40
2016-05-25T05:04:28.768Z,50
2016-05-25T05:05:28.755Z,55
2016-05-25T05:06:28.804Z,55
2016-05-25T05:07:28.885Z,60
2016-05-25T05:08:28.685Z,55
2016-05-25T05:09:29.187Z,60
2016-05-25T05:10:29.268Z,60
2016-05-25T05:11:29.443Z,65
2016-05-25T05:12:29.196Z,65
2016-05-25T05:13:29.401Z,65
2016-05-25T05:14:28.764Z,70
2016-05-25T05:15:29.110Z,70
2016-05-25T05:16:29.832Z,65
2016-05-25T05:17:29.975Z,65
2016-05-25T05:18:29.056Z,70
2016-05-25T05:19:29.402Z,80
2016-05-25T05:20:29.343Z,100
2016-05-25T05:21:29.579Z,105
2016-05-25T05:22:29.379Z,90
2016-05-25T05:23:29.428Z,110
2016-05-25T05:24:30.556Z,100
2016-05-25T05:25:30.294Z,75
2016-05-25T05:26:29.656Z,75
2016-05-25T05:27:29.299Z,65
2016-05-25T05:28:29.833Z,60
2016-05-25T05:29:30.335Z,55
2016-05-25T05:30:29.588Z,60
2016-05-25T05:31:30.747Z,65
2016-05-25T05:32:29.938Z,65
2016-05-25T05:33:29.815Z,80
2016-05-25T05:34:32.177Z,85
2016-05-25T05:35:29.883Z,85
2016-05-25T05:36:30.199Z,70
2016-05-25T05:37:29.951Z,65
2016-05-25T05:38:30.063Z,65
2016-05-25T05:39:29.909Z,60
2016-05-25T05:40:29.802Z,75
2016-05-25T05:41:29.993Z,90
2016-05-25T05:42:30.151Z,90
2016-05-25T05:43:30.045Z,75
2016-05-25T05:44:30.094Z,65
2016-05-25T05:45:30.285Z,65
2016-05-25T05:46:30.396Z,70
2016-05-25T05:47:30.712Z,70
2016-05-25T05:48:30.402Z,65
2016-05-25T05:49:30.451Z,65
2016-05-25T05:50:30.517Z,70
2016-05-25T05:51:30.379Z,60
2016-05-25T05:52:30.569Z,60
2016-05-25T05:53:30.650Z,65
2016-05-25T05:54:30.855Z,65
2016-05-25T05:55:30.687Z,75
2016-05-25T05:56:30.455Z,85
2016-05-25T05:57:30.755Z,100
2016-05-25T05:58:30.804Z,100
2016-05-25T05:59:30.838Z,85
2016-05-25T06:00:30.903Z,70
2016-05-25T06:01:31.124Z,65
2016-05-25T06:02:31.080Z,70
2016-05-25T06:03:30.989Z,80
2016-05-25T06:04:31.085Z,85
2016-05-25T06:05:30.979Z,85
2016-05-25T06:06:30.966Z,85
2016-05-25T06:07:30.999Z,90
2016-05-25T06:08:31.128Z,90
2016-05-25T06:09:31.240Z,100
2016-05-25T06:10:32.493Z,100
2016-05-25T06:11:31.293Z,110
2016-05-25T06:12:31.295Z,120
2016-05-25T06:13:31.407Z,125
2016-05-25T06:14:31.284Z,105
2016-05-25T06:15:31.521Z,110
2016-05-25T06:16:31.868Z,95
2016-05-25T06:17:31.417Z,95
2016-05-25T06:18:31.593Z,100
2016-05-25T06:19:31.954Z,105
2016-05-25T06:20:31.534Z,115
2016-05-25T06:21:33.070Z,120
2016-05-25T06:22:32.884Z,130
2016-05-25T06:23:32.700Z,130
2016-05-25T06:24:31.812Z,120
2016-05-25T06:25:31.876Z,105
2016-05-25T06:26:32.083Z,95
2016-05-25T06:27:31.788Z,95
2016-05-25T06:28:36.525Z,115
2016-05-25T06:29:31.855Z,115
2016-05-25T06:30:32.077Z,110
2016-05-25T06:31:32.642Z,125
2016-05-25T06:32:32.161Z,130
2016-05-25T06:33:32.898Z,120
2016-05-25T06:34:34.964Z,115
2016-05-25T06:35:32.278Z,115
2016-05-25T06:36:32.656Z,120
2016-05-25T06:37:32.347Z,120
2016-05-25T06:38:38.333Z,130
2016-05-25T06:39:42.164Z,125
2016-05-25T06:40:36.166Z,130
2016-05-25T06:41:32.483Z,140
2016-05-25T06:42:32.594Z,135
2016-05-25T06:43:36.660Z,135
2016-05-25T06:44:32.599Z,135
2016-05-25T06:45:32.634Z,135
2016-05-25T06:46:32.651Z,150
2016-05-25T06:47:32.607Z,160
2016-05-25T06:48:38.188Z,155
2016-05-25T06:49:32.815Z,155
2016-05-25T06:50:32.851Z,155
2016-05-25T06:51:32.884Z,165
2016-05-25T06:52:32.917Z,180
2016-05-25T06:53:41.187Z,170
2016-05-25T06:54:32.892Z,180
2016-05-25T06:55:33.082Z,180
2016-05-25T06:56:33.085Z,185
2016-05-25T06:57:33.103Z,185
2016-05-25T06:58:36.747Z,195
2016-05-25T06:59:33.233Z,205
2016-05-25T07:00:33.095Z,205
2016-05-25T07:01:33.208Z,210
2016-05-25T07:02:33.211Z,200
2016-05-25T07:03:38.244Z,205
2016-05-25T07:04:33.419Z,210
2016-05-25T07:05:34.188Z,190
2016-05-25T07:06:33.486Z,185
2016-05-25T07:07:33.505Z,185
2016-05-25T07:08:37.571Z,185
2016-05-25T07:09:33.588Z,180
2016-05-25T07:10:33.497Z,190
2016-05-25T07:11:33.579Z,195
2016-05-25T07:12:33.721Z,190
2016-05-25T07:13:40.318Z,180
2016-05-25T07:14:33.868Z,180
2016-05-25T07:15:33.745Z,205
2016-05-25T07:16:33.779Z,195
2016-05-25T07:17:33.782Z,190
2016-05-25T07:18:39.519Z,180
2016-05-25T07:19:34.100Z,185
2016-05-25T07:20:34.868Z,195
2016-05-25T07:21:35.121Z,180
2016-05-25T07:22:34.171Z,185
2016-05-25T07:23:39.329Z,215
2016-05-25T07:24:34.239Z,225
2016-05-25T07:25:34.397Z,235
2016-05-25T07:26:35.447Z,230
2016-05-25T07:27:35.778Z,225
2016-05-25T07:28:44.499Z,220
2016-05-25T07:29:38.314Z,210
2016-05-25T07:30:37.645Z,190
2016-05-25T07:31:36.789Z,175
2016-05-25T07:32:37.947Z,155
2016-05-25T07:33:40.169Z,155
2016-05-25T07:34:37.406Z,160
2016-05-25T07:35:37.361Z,165
2016-05-25T07:36:38.943Z,150
2016-05-25T07:37:36.320Z,175
2016-05-25T07:38:35.339Z,195
2016-05-25T07:39:35.404Z,185
2016-05-25T07:40:34.938Z,190
2016-05-25T07:41:34.987Z,200
2016-05-25T07:42:35.052Z,185
2016-05-25T07:43:37.165Z,180
2016-05-25T07:44:34.886Z,180
2016-05-25T07:45:34.904Z,205
2016-05-25T07:46:36.844Z,210
2016-05-25T07:47:35.816Z,220
2016-05-25T07:48:35.256Z,210
2016-05-25T07:49:35.682Z,205
2016-05-25T07:50:35.590Z,215
2016-05-25T07:51:35.124Z,260
2016-05-25T07:52:35.626Z,295
2016-05-25T07:53:35.598Z,305
2016-05-25T07:54:36.976Z,305
2016-05-25T07:55:35.510Z,325
2016-05-25T07:56:37.715Z,320
2016-05-25T07:57:36.405Z,310
2016-05-25T07:58:38.846Z,315
2016-05-25T07:59:35.645Z,310
2016-05-25T08:00:35.506Z,290
2016-05-25T08:01:35.744Z,270
2016-05-25T08:03:42.453Z,265
2016-05-25T08:03:59.984Z,270
2016-05-25T08:05:02.237Z,270
2016-05-25T08:06:01.630Z,250
2016-05-25T08:07:02.055Z,250
2016-05-25T08:08:01.995Z,265
2016-05-25T08:09:02.107Z,275
2016-05-25T08:10:01.110Z,275
2016-05-25T08:11:01.534Z,270
2016-05-25T08:11:56.944Z,270
2016-05-25T08:12:58.743Z,260
2016-05-25T08:13:55.979Z,255
2016-05-25T08:14:56.357Z,250
2016-05-25T08:15:56.251Z,260
2016-05-25T08:16:56.207Z,265
2016-05-25T08:18:00.178Z,285
2016-05-25T08:18:59.540Z,300
2016-05-25T08:19:58.308Z,295
2016-05-25T08:20:59.390Z,280
2016-05-25T08:21:56.923Z,255
2016-05-25T08:22:57.191Z,250
2016-05-25T08:23:56.616Z,270
2016-05-25T08:24:56.618Z,245
2016-05-25T08:25:56.621Z,240
2016-05-25T08:26:56.670Z,235
2016-05-25T08:27:57.298Z,235
2016-05-25T08:28:56.770Z,250
2016-05-25T08:29:56.820Z,265
2016-05-25T08:30:57.431Z,275
2016-05-25T08:31:57.590Z,265
2016-05-25T08:32:58.875Z,250
2016-05-25T08:33:56.784Z,240
2016-05-25T08:34:57.880Z,250
2016-05-25T08:35:57.101Z,275
2016-05-25T08:36:57.150Z,305
2016-05-25T08:37:58.717Z,320
2016-05-25T08:38:59.109Z,310
2016-05-25T08:39:57.456Z,320
2016-05-25T08:40:58.333Z,330
2016-05-25T08:41:57.867Z,335
2016-05-25T08:43:00.402Z,340
2016-05-25T08:43:57.326Z,335
2016-05-25T08:44:57.750Z,325
2016-05-25T08:45:57.457Z,315
2016-05-25T08:46:57.521Z,305
2016-05-25T08:48:00.180Z,340
2016-05-25T08:48:57.965Z,385
2016-05-25T08:49:59.342Z,375
2016-05-25T08:50:58.829Z,380
2016-05-25T08:52:01.941Z,380
2016-05-25T08:53:01.851Z,375
2016-05-25T08:53:59.649Z,370
2016-05-25T08:54:58.887Z,385
2016-05-25T08:55:59.609Z,395
2016-05-25T08:56:58.470Z,375
2016-05-25T08:57:59.098Z,360
2016-05-25T08:58:58.179Z,355
2016-05-25T08:59:58.041Z,385
2016-05-25T09:00:58.122Z,425
2016-05-25T09:01:58.296Z,460
2016-05-25T09:02:58.424Z,495
2016-05-25T09:03:58.239Z,500
2016-05-25T09:04:58.100Z,505
2016-05-25T09:05:58.261Z,510
2016-05-25T09:06:58.153Z,505
2016-05-25T09:08:00.422Z,485
2016-05-25T09:08:59.065Z,470
2016-05-25T09:10:00.114Z,455
2016-05-25T09:10:59.539Z,455
2016-05-25T09:11:58.448Z,450
2016-05-25T09:13:01.655Z,430
2016-05-25T09:13:58.703Z,455
2016-05-25T09:14:58.831Z,490
2016-05-25T09:15:59.163Z,490
2016-05-25T09:16:58.837Z,500
2016-05-25T09:18:00.057Z,495
2016-05-25T09:18:59.327Z,495
2016-05-25T09:19:59.313Z,525
2016-05-25T09:20:59.707Z,530
2016-05-25T09:21:58.944Z,495
2016-05-25T09:23:01.635Z,480
2016-05-25T09:23:59.074Z,495
2016-05-25T09:24:59.280Z,545
2016-05-25T09:25:59.329Z,605
2016-05-25T09:26:59.192Z,580
2016-05-25T09:27:59.928Z,520
2016-05-25T09:28:59.353Z,465
2016-05-25T09:29:59.387Z,450
2016-05-25T09:30:59.593Z,495
2016-05-25T09:31:59.799Z,575
2016-05-25T09:33:00.583Z,615
2016-05-25T09:33:59.461Z,540
2016-05-25T09:34:59.917Z,500
2016-05-25T09:36:01.512Z,535
2016-05-25T09:36:59.890Z,570
2016-05-25T09:38:04.017Z,575
2016-05-25T09:39:02.850Z,520
2016-05-25T09:40:01.914Z,520
2016-05-25T09:41:05.744Z,525
2016-05-25T09:42:01.451Z,540
2016-05-25T09:43:02.361Z,570
2016-05-25T09:44:00.113Z,575
2016-05-25T09:44:59.927Z,615
2016-05-25T09:45:59.899Z,665
2016-05-25T09:46:59.792Z,690
2016-05-25T09:48:00.249Z,720
2016-05-25T09:49:01.157Z,715
2016-05-25T09:50:02.629Z,640
2016-05-25T09:51:00.038Z,595
2016-05-25T09:52:00.305Z,605
2016-05-25T09:53:00.105Z,590
2016-05-25T09:54:00.936Z,580
2016-05-25T09:55:00.345Z,615
2016-05-25T09:56:00.301Z,655
2016-05-25T09:57:00.553Z,710
2016-05-25T09:58:01.197Z,750
2016-05-25T09:59:01.340Z,770
2016-05-25T10:00:00.764Z,755
2016-05-25T10:01:00.642Z,720
2016-05-25T10:02:04.207Z,715
2016-05-25T10:03:02.773Z,705
2016-05-25T10:04:00.650Z,725
2016-05-25T10:05:00.512Z,740
2016-05-25T10:06:00.734Z,745
2016-05-25T10:07:00.720Z,745
2016-05-25T10:08:02.302Z,730
2016-05-25T10:09:00.945Z,730
2016-05-25T10:10:01.089Z,705
2016-05-25T10:11:01.466Z,685
2016-05-25T10:12:02.391Z,665
2016-05-25T10:13:01.284Z,630
2016-05-25T10:14:02.036Z,595
2016-05-25T10:15:01.242Z,590
2016-05-25T10:16:01.183Z,570
2016-05-25T10:17:01.295Z,645
2016-05-25T10:18:01.267Z,655
2016-05-25T10:19:02.144Z,625
2016-05-25T10:20:07.193Z,600
2016-05-25T10:21:03.024Z,595
2016-05-25T10:22:01.855Z,550
2016-05-25T10:23:01.639Z,520
2016-05-25T10:24:01.954Z,505
2016-05-25T10:25:01.505Z,505
2016-05-25T10:26:01.944Z,505
2016-05-25T10:27:01.821Z,500
2016-05-25T10:28:01.653Z,500
2016-05-25T10:29:01.702Z,500
2016-05-25T10:30:01.720Z,530
2016-05-25T10:31:03.676Z,570
2016-05-25T10:32:04.023Z,565
2016-05-25T10:33:02.041Z,530
2016-05-25T10:34:02.043Z,480
2016-05-25T10:35:01.812Z,445
2016-05-25T10:36:03.221Z,435
2016-05-25T10:37:02.192Z,435
2016-05-25T10:38:02.320Z,425
2016-05-25T10:39:02.089Z,410
2016-05-25T10:40:01.997Z,370
2016-05-25T10:41:03.250Z,340
2016-05-25T10:42:03.097Z,330
2016-05-25T10:43:02.443Z,340
2016-05-25T10:44:02.992Z,360
2016-05-25T10:45:02.510Z,370
2016-05-25T10:46:02.419Z,355
2016-05-25T10:47:03.094Z,320
2016-05-25T10:48:02.878Z,290
2016-05-25T10:49:02.553Z,285
2016-05-25T10:50:02.711Z,285
2016-05-25T10:51:02.777Z,300
2016-05-25T10:52:02.827Z,325
2016-05-25T10:53:03.080Z,360
2016-05-25T10:54:02.910Z,400
2016-05-25T10:55:02.804Z,460
2016-05-25T10:56:02.853Z,495
2016-05-25T10:57:03.043Z,505
2016-05-25T10:58:03.093Z,490
2016-05-25T10:59:02.876Z,470
2016-05-25T11:00:03.020Z,440
2016-05-25T11:01:03.210Z,400
2016-05-25T11:02:03.259Z,360
2016-05-25T11:03:04.607Z,340
2016-05-25T11:04:03.203Z,335
2016-05-25T11:05:03.362Z,335
2016-05-25T11:06:03.474Z,340
2016-05-25T11:07:03.304Z,360
2016-05-25T11:08:03.370Z,385
2016-05-25T11:09:03.434Z,425
2016-05-25T11:10:03.640Z,470
2016-05-25T11:11:03.628Z,545
2016-05-25T11:12:03.521Z,625
2016-05-25T11:13:05.930Z,710
2016-05-25T11:14:03.791Z,805
2016-05-25T11:15:03.825Z,880
2016-05-25T11:16:03.828Z,850
2016-05-25T11:17:03.675Z,665
2016-05-25T11:18:05.147Z,510
2016-05-25T11:19:03.978Z,440
2016-05-25T11:20:03.855Z,410
2016-05-25T11:21:03.685Z,395
2016-05-25T11:22:03.798Z,395
2016-05-25T11:23:07.957Z,400
2016-05-25T11:24:04.210Z,405
2016-05-25T11:25:06.649Z,435
2016-05-25T11:26:04.153Z,465
2016-05-25T11:27:04.999Z,520
2016-05-25T11:28:06.282Z,560
2016-05-25T11:29:06.285Z,600
2016-05-25T11:30:04.335Z,625
2016-05-25T11:31:04.462Z,615
2016-05-25T11:32:04.574Z,600
2016-05-25T11:33:07.765Z,625
2016-05-25T11:34:04.659Z,645
2016-05-25T11:35:05.396Z,625
2016-05-25T11:36:04.679Z,605
2016-05-25T11:37:05.447Z,595
2016-05-25T11:38:05.154Z,585
2016-05-25T11:39:04.875Z,580
2016-05-25T11:40:04.893Z,555
2016-05-25T11:41:04.896Z,535
2016-05-25T11:42:04.992Z,545
2016-05-25T11:43:05.792Z,580
2016-05-25T11:44:05.013Z,645
2016-05-25T11:45:05.078Z,690
2016-05-25T11:46:04.831Z,655
2016-05-25T11:47:05.365Z,715
2016-05-25T11:48:08.790Z,815
2016-05-25T11:49:05.245Z,730
2016-05-25T11:50:08.264Z,615
2016-05-25T11:51:05.344Z,525
2016-05-25T11:52:06.660Z,490
2016-05-25T11:53:05.444Z,495
2016-05-25T11:54:05.712Z,520
2016-05-25T11:55:05.511Z,535
2016-05-25T11:56:05.561Z,535
2016-05-25T11:57:05.595Z,550
2016-05-25T11:58:05.629Z,595
2016-05-25T11:59:05.663Z,610
2016-05-25T12:00:05.760Z,630
2016-05-25T12:01:08.371Z,630
2016-05-25T12:02:05.671Z,600
2016-05-25T12:03:06.174Z,580
2016-05-25T12:04:05.630Z,520
2016-05-25T12:05:05.960Z,465
2016-05-25T12:06:05.994Z,450
2016-05-25T12:07:06.106Z,445
2016-05-25T12:08:05.812Z,425
2016-05-25T12:09:05.846Z,405
2016-05-25T12:10:08.099Z,405
2016-05-25T12:11:06.351Z,400
2016-05-25T12:12:06.275Z,390
2016-05-25T12:13:06.139Z,380
2016-05-25T12:14:06.203Z,380
2016-05-25T12:15:06.081Z,375
2016-05-25T12:16:06.099Z,375
2016-05-25T12:17:07.086Z,380
2016-05-25T12:18:06.745Z,390
2016-05-25T12:19:06.623Z,415
2016-05-25T12:20:06.611Z,415
2016-05-25T12:21:06.519Z,420
2016-05-25T12:22:06.522Z,435
2016-05-25T12:23:06.759Z,450
2016-05-25T12:24:06.777Z,450
2016-05-25T12:25:06.811Z,445
2016-05-25T12:26:06.657Z,450
2016-05-25T12:27:06.769Z,440
2016-05-25T12:28:06.804Z,440
2016-05-25T12:29:07.432Z,455
2016-05-25T12:30:07.043Z,445
2016-05-25T12:31:07.140Z,445
2016-05-25T12:32:07.017Z,465
2016-05-25T12:33:07.035Z,485
2016-05-25T12:34:07.195Z,485
2016-05-25T12:35:07.276Z,480
2016-05-25T12:36:07.293Z,480
2016-05-25T12:37:10.437Z,480
2016-05-25T12:38:07.752Z,475
2016-05-25T12:39:07.412Z,485
2016-05-25T12:40:07.445Z,485
2016-05-25T12:41:07.495Z,475
2016-05-25T12:42:07.403Z,470
2016-05-25T12:43:09.078Z,465
2016-05-25T12:44:07.503Z,460
2016-05-25T12:45:07.693Z,435
2016-05-25T12:46:07.695Z,410
2016-05-25T12:47:09.183Z,395
2016-05-25T12:48:09.764Z,375
2016-05-25T12:49:07.829Z,360
2016-05-25T12:50:07.692Z,345
2016-05-25T12:51:08.990Z,330
2016-05-25T12:52:08.039Z,320
2016-05-25T12:53:11.027Z,340
2016-05-25T12:54:07.733Z,350
2016-05-25T12:55:07.783Z,355
2016-05-25T12:56:10.300Z,340
2016-05-25T12:57:09.302Z,335
2016-05-25T12:58:07.916Z,330
2016-05-25T12:59:08.277Z,330
2016-05-25T13:00:08.327Z,345
2016-05-25T13:01:10.735Z,355
2016-05-25T13:02:11.005Z,360
2016-05-25T13:03:09.991Z,365
2016-05-25T13:04:08.353Z,365
2016-05-25T13:05:08.372Z,360
2016-05-25T13:06:08.577Z,355
2016-05-25T13:07:08.471Z,355
2016-05-25T13:08:08.676Z,365
2016-05-25T13:09:08.539Z,360
2016-05-25T13:10:08.712Z,335
2016-05-25T13:11:09.045Z,320
2016-05-25T13:12:11.812Z,310
2016-05-25T13:13:08.550Z,305
2016-05-25T13:14:08.896Z,295
2016-05-25T13:15:08.976Z,295
2016-05-25T13:16:08.995Z,305
2016-05-25T13:17:10.451Z,305
2016-05-25T13:18:12.672Z,315
2016-05-25T13:19:08.987Z,310
2016-05-25T13:20:09.006Z,300
2016-05-25T13:21:09.197Z,295
2016-05-25T13:22:11.542Z,285
2016-05-25T13:23:09.311Z,270
2016-05-25T13:24:09.360Z,270
2016-05-25T13:25:10.431Z,285
2016-05-25T13:26:09.489Z,290
2016-05-25T13:27:11.546Z,295
2016-05-25T13:28:09.588Z,295
2016-05-25T13:29:09.645Z,285
2016-05-25T13:30:09.715Z,275
2016-05-25T13:31:09.788Z,265
2016-05-25T13:32:09.705Z,255
2016-05-25T13:33:13.826Z,270
2016-05-25T13:34:09.947Z,280
2016-05-25T13:35:09.847Z,300
2016-05-25T13:36:12.118Z,310
2016-05-25T13:37:10.951Z,315
2016-05-25T13:38:09.848Z,305
2016-05-25T13:39:10.213Z,285
2016-05-25T13:40:10.173Z,275
2016-05-25T13:41:10.255Z,265
2016-05-25T13:42:11.383Z,260
2016-05-25T13:43:10.200Z,255
2016-05-25T13:44:10.438Z,255
2016-05-25T13:45:10.254Z,255
2016-05-25T13:46:10.522Z,260
2016-05-25T13:47:10.198Z,260
2016-05-25T13:48:10.637Z,260
2016-05-25T13:49:10.579Z,270
2016-05-25T13:50:10.613Z,275
2016-05-25T13:51:10.506Z,280
2016-05-25T13:52:10.696Z,285
2016-05-25T13:53:10.574Z,290
2016-05-25T13:54:10.843Z,295
2016-05-25T13:55:10.830Z,300
2016-05-25T13:56:10.707Z,305
2016-05-25T13:57:10.929Z,295
2016-05-25T13:58:11.088Z,290
2016-05-25T13:59:10.918Z,290
2016-05-25T14:00:10.874Z,305
2016-05-25T14:01:11.142Z,325
2016-05-25T14:02:12.942Z,350
2016-05-25T14:03:12.537Z,350
2016-05-25T14:04:11.041Z,340
2016-05-25T14:05:11.309Z,340
2016-05-25T14:06:11.295Z,340
2016-05-25T14:07:11.314Z,335